Terre Haute Regional (HUF)

 

Airport Diagram
Current Weather/Forecast (IFR Conditions)
METAR KHUF 270253Z AUTO 35005KT 7SM OVC008 07/04 A3029 RMK AO2 SLP258 60008 T00670044 53005
TAF KHUF 262322Z 2700/2724 36007KT 5SM -RA OVC009 FM270300 01007KT P6SM VCSH OVC015 FM270600 01005KT P6SM OVC016 FM270900 01006KT P6SM VCSH OVC016 FM271500 01005KT P6SM OVC013 FM272100 36005KT P6SM BKN020 FM272300 VRB04KT P6SM BKN035

Airport Information

All Charts
General
Chart Name View
AIRPORT DIAGRAM
AIRPORT DIAGRAM
TAKEOFF MINIMUMS
ALTERNATE MINIMUMS
RADAR MINIMUMS
TAKEOFF MINIMUMS
ALTERNATE MINIMUMS
RADAR MINIMUMS
LAHSO
LAHSO

Approaches
Chart Name Download
ILS OR LOC RWY 05
RNAV (GPS) RWY 05
RNAV (GPS) RWY 14
RNAV (GPS) RWY 23
RNAV (GPS) RWY 32
VOR RWY 05
VOR RWY 23
ILS OR LOC RWY 05
RNAV (GPS) RWY 05
RNAV (GPS) RWY 14
RNAV (GPS) RWY 23
RNAV (GPS) RWY 32
VOR RWY 05
VOR RWY 23


Airport Statistics
Departures Arrivals Local
All Collected Stats since June 2016: 75 61 61
2020 Stats: 15 22 10
October Stats: 2 3 6

Inbound Traffic (Arrivals) - 0

No inbound traffic.


Outbound Traffic (Departures) - 0

No outbound traffic.


Local Traffic (Pattern) - 0

No local traffic.